Time;durP1;ratioP1;P1;durP2;ratioP2;P2;SDS_P1;SDS_P2;PMS_P1;PMS_P2;Temp;Humidity;BMP_temperature;BMP_pressure;BME280_temperature;BME280_humidity;BME280_pressure;Samples;Min_cycle;Max_cycle;Signal;HPM_P1;HPM_P2
2022/12/25 00:00:53;;;;;;;7.90;4.03;;;11.30;74.30;;;;;;5069237;28;20132;-54
2022/12/25 00:03:22;;;;;;;8.15;4.40;;;11.30;74.30;;;;;;5082808;28;20049;-55
2022/12/25 00:05:49;;;;;;;5.43;3.47;;;11.30;74.20;;;;;;5073495;28;20049;-53
2022/12/25 00:08:17;;;;;;;10.02;4.22;;;11.30;74.10;;;;;;5075348;28;20123;-51
2022/12/25 00:10:55;;;;;;;7.57;4.10;;;11.30;74.10;;;;;;5070140;28;20521;-54
2022/12/25 00:13:26;;;;;;;10.13;4.40;;;11.30;74.10;;;;;;5075867;28;20041;-53
2022/12/25 00:15:53;;;;;;;7.88;3.90;;;11.30;74.20;;;;;;5074780;28;20444;-51
2022/12/25 00:18:23;;;;;;;10.50;4.13;;;11.30;74.30;;;;;;5077504;28;20550;-54
2022/12/25 00:20:58;;;;;;;6.88;4.47;;;11.30;74.30;;;;;;5082319;28;20036;-54
2022/12/25 00:23:27;;;;;;;9.45;4.80;;;11.30;74.40;;;;;;5070117;28;20043;-55
2022/12/25 00:25:57;;;;;;;10.82;4.45;;;11.30;74.40;;;;;;5075099;28;20045;-52
2022/12/25 00:28:26;;;;;;;11.88;4.30;;;11.30;74.60;;;;;;5074357;28;20051;-52
2022/12/25 00:30:56;;;;;;;6.30;3.67;;;11.30;74.60;;;;;;5078470;28;20043;-53
2022/12/25 00:33:25;;;;;;;8.65;4.65;;;11.40;74.70;;;;;;5056423;28;20135;-52
2022/12/25 00:35:58;;;;;;;7.47;4.05;;;11.40;74.80;;;;;;5074752;28;20045;-54
2022/12/25 00:38:26;;;;;;;8.00;3.90;;;11.40;74.80;;;;;;5068591;28;20123;-54
2022/12/25 00:41:11;;;;;;;9.52;3.92;;;11.40;74.80;;;;;;5084279;28;20041;-54
2022/12/25 00:43:41;;;;;;;10.05;3.95;;;11.40;74.70;;;;;;5056681;28;20053;-54
2022/12/25 00:46:12;;;;;;;7.45;3.88;;;11.50;74.70;;;;;;5075448;28;20056;-51
2022/12/25 00:48:40;;;;;;;8.88;3.33;;;11.50;74.50;;;;;;5083157;28;20068;-54
2022/12/25 00:51:09;;;;;;;6.32;3.10;;;11.50;74.40;;;;;;5081200;28;20073;-54
2022/12/25 00:53:41;;;;;;;8.05;3.70;;;11.50;74.40;;;;;;5074311;28;20173;-54
2022/12/25 00:56:09;;;;;;;7.93;3.45;;;11.50;74.30;;;;;;5072463;28;20031;-54
2022/12/25 00:58:36;;;;;;;5.47;3.38;;;11.50;74.20;;;;;;5074721;28;20124;-54
2022/12/25 01:01:02;;;;;;;4.32;2.92;;;11.50;74.30;;;;;;5074633;28;20050;-54
2022/12/25 01:03:30;;;;;;;5.25;3.42;;;11.50;74.30;;;;;;5074101;28;20463;-51
2022/12/25 01:06:05;;;;;;;7.18;3.85;;;11.50;74.30;;;;;;5072170;28;20051;-55
2022/12/25 01:08:37;;;;;;;7.15;3.95;;;11.50;74.30;;;;;;5083475;28;20087;-54
2022/12/25 01:11:07;;;;;;;6.20;3.88;;;11.60;74.30;;;;;;5075281;28;20069;-51
2022/12/25 01:13:36;;;;;;;8.30;4.25;;;11.60;74.30;;;;;;5072198;28;20055;-54
2022/12/25 01:16:06;;;;;;;9.57;4.43;;;11.60;74.20;;;;;;5064484;28;20400;-54
2022/12/25 01:18:35;;;;;;;;;;;11.60;74.20;;;;;;5072527;28;20560;-53
2022/12/25 01:21:15;;;;;;;7.43;3.90;;;11.60;74.30;;;;;;5073536;28;20300;-54
2022/12/25 01:23:45;;;;;;;5.38;4.10;;;11.60;73.90;;;;;;5071360;28;20139;-54
2022/12/25 01:26:16;;;;;;;7.03;4.43;;;11.60;73.90;;;;;;5075599;28;20066;-55
2022/12/25 01:28:45;;;;;;;5.55;3.83;;;11.60;73.90;;;;;;5074172;28;20098;-54
2022/12/25 01:31:16;;;;;;;7.70;4.28;;;11.60;73.90;;;;;;5073931;28;20037;-54
2022/12/25 01:33:44;;;;;;;8.10;4.20;;;11.60;74.00;;;;;;5074042;28;20058;-55
2022/12/25 01:36:23;;;;;;;7.47;4.25;;;11.60;74.00;;;;;;5071277;28;20110;-53
2022/12/25 01:38:53;;;;;;;7.32;4.25;;;11.60;74.10;;;;;;5074124;28;20048;-54
2022/12/25 01:41:22;;;;;;;9.43;3.85;;;11.60;74.10;;;;;;5073638;28;20041;-52
2022/12/25 01:44:07;;;;;;;6.28;3.58;;;11.60;74.30;;;;;;5069914;28;20409;-54
2022/12/25 01:46:35;;;;;;;7.60;3.67;;;11.60;74.40;;;;;;5084456;28;20555;-53
2022/12/25 01:49:08;;;;;;;8.93;4.15;;;11.60;74.40;;;;;;5065847;28;20048;-51
2022/12/25 01:51:58;;;;;;;5.95;3.03;;;11.60;74.40;;;;;;5084498;28;20044;-54
2022/12/25 01:54:27;;;;;;;9.15;4.57;;;11.60;74.50;;;;;;5071412;28;20052;-55
2022/12/25 01:56:58;;;;;;;10.30;3.55;;;11.60;74.40;;;;;;5073183;28;20091;-51
2022/12/25 01:59:26;;;;;;;4.40;3.45;;;11.70;74.50;;;;;;5073348;28;20123;-52
2022/12/25 02:01:55;;;;;;;6.93;3.63;;;11.70;74.40;;;;;;5078188;28;20123;-53
2022/12/25 02:04:39;;;;;;;6.00;3.00;;;11.70;75.10;;;;;;5077022;28;20101;-53
2022/12/25 02:07:14;;;;;;;7.88;4.28;;;11.70;74.60;;;;;;5062721;28;20036;-52
2022/12/25 02:09:43;;;;;;;5.70;4.07;;;11.70;74.60;;;;;;5068484;28;20056;-53
2022/12/25 02:12:17;;;;;;;11.30;4.20;;;11.70;74.50;;;;;;5070596;28;20392;-53
2022/12/25 02:14:47;;;;;;;6.35;3.45;;;11.70;74.60;;;;;;5074025;28;20124;-52
2022/12/25 02:17:33;;;;;;;5.47;3.33;;;11.70;74.60;;;;;;5072775;28;20509;-52
2022/12/25 02:20:39;;;;;;;5.40;3.47;;;11.70;74.80;;;;;;5072867;28;20504;-53
2022/12/25 02:23:34;;;;;;;8.38;3.72;;;11.80;74.90;;;;;;5070476;28;20080;-53
2022/12/25 02:26:15;;;;;;;4.72;3.22;;;11.80;74.70;;;;;;5074626;28;20040;-53
2022/12/25 02:28:52;;;;;;;7.72;3.47;;;11.80;74.60;;;;;;5073810;28;20045;-55
2022/12/25 02:31:31;;;;;;;4.38;3.30;;;11.80;74.40;;;;;;5055250;28;20106;-55
2022/12/25 02:34:20;;;;;;;5.25;3.50;;;11.80;74.40;;;;;;5073038;28;20040;-54
2022/12/25 02:37:11;;;;;;;6.05;4.10;;;11.80;74.40;;;;;;5073335;28;20105;-55
2022/12/25 02:40:07;;;;;;;4.60;3.40;;;11.80;74.30;;;;;;5074407;28;20080;-52
2022/12/25 03:08:30;;;;;;;6.80;4.20;;;11.80;74.20;;;;;;5071587;28;20055;-53
2022/12/25 03:16:52;;;;;;;6.88;3.10;;;11.80;74.30;;;;;;5072887;28;20056;-53
2022/12/25 03:27:57;;;;;;;5.80;3.67;;;11.80;74.40;;;;;;5070740;28;20032;-55
2022/12/25 03:33:23;;;;;;;6.90;3.50;;;11.90;74.80;;;;;;5056021;28;20420;-53
2022/12/25 03:36:28;;;;;;;5.40;3.65;;;11.90;74.50;;;;;;5080244;28;20047;-54
2022/12/25 03:40:54;;;;;;;5.10;3.10;;;11.90;74.80;;;;;;5077669;28;20123;-55
2022/12/25 03:43:22;;;;;;;4.15;2.47;;;11.90;74.90;;;;;;5075901;28;20531;-55
2022/12/25 04:36:23;;;;;;;4.00;2.83;;;11.80;73.40;;;;;;5068666;28;20120;-55
2022/12/25 04:38:49;;;;;;;3.67;2.42;;;11.70;73.20;;;;;;5073800;28;20119;-55
2022/12/25 04:41:16;;;;;;;7.22;2.88;;;11.70;73.00;;;;;;5075159;28;20040;-55
2022/12/25 04:43:43;;;;;;;2.60;2.20;;;11.60;73.00;;;;;;5078653;28;20048;-55
2022/12/25 04:46:12;;;;;;;2.90;2.05;;;11.50;72.80;;;;;;5074845;28;20037;-53
2022/12/25 04:48:39;;;;;;;2.97;1.90;;;11.50;72.60;;;;;;5074259;28;20070;-53
2022/12/25 04:51:19;;;;;;;3.70;2.47;;;11.40;72.50;;;;;;5077356;28;20037;-53
2022/12/25 04:53:47;;;;;;;2.08;1.77;;;11.30;72.20;;;;;;5070319;28;20044;-53
2022/12/25 04:56:15;;;;;;;2.38;1.90;;;11.20;72.30;;;;;;5070690;28;20485;-53
2022/12/25 04:58:45;;;;;;;5.68;2.65;;;11.10;72.40;;;;;;5067526;28;20094;-54
2022/12/25 05:01:13;;;;;;;3.88;2.75;;;11.10;72.40;;;;;;5055389;28;20608;-53
2022/12/25 05:03:45;;;;;;;4.63;2.70;;;11.00;72.50;;;;;;5078419;28;20051;-53
2022/12/25 05:06:12;;;;;;;3.40;2.65;;;10.90;72.80;;;;;;5064708;23;20041;-47
2022/12/25 05:08:41;;;;;;;4.10;2.97;;;10.80;72.90;;;;;;5078166;28;20044;-48
2022/12/25 05:11:13;;;;;;;3.00;2.63;;;10.80;73.00;;;;;;5060535;28;20065;-49
2022/12/25 05:13:42;;;;;;;3.90;2.60;;;10.80;73.20;;;;;;5050105;28;20463;-49
2022/12/25 05:16:16;;;;;;;3.15;2.58;;;10.70;73.30;;;;;;5048607;28;20095;-49
2022/12/25 05:18:48;;;;;;;3.15;2.72;;;10.70;73.30;;;;;;5031379;28;20041;-48
2022/12/25 05:21:17;;;;;;;;;;;10.70;73.50;;;;;;5047561;28;20045;-48
2022/12/25 05:23:47;;;;;;;3.67;2.53;;;10.70;73.60;;;;;;5045016;28;19921;-48
2022/12/25 05:26:17;;;;;;;3.88;2.25;;;10.70;73.50;;;;;;5030879;28;20041;-48
2022/12/25 05:28:47;;;;;;;3.47;2.30;;;10.70;73.60;;;;;;5036101;28;20516;-48
2022/12/25 05:31:15;;;;;;;4.07;2.25;;;10.60;73.60;;;;;;5037504;28;20059;-46
2022/12/25 05:33:44;;;;;;;4.20;2.67;;;10.60;73.80;;;;;;5033301;28;20046;-48
2022/12/25 05:36:11;;;;;;;5.53;2.50;;;10.60;74.00;;;;;;5032426;28;20111;-47
2022/12/25 05:38:40;;;;;;;4.05;2.05;;;10.60;74.10;;;;;;5035733;28;20045;-51
2022/12/25 05:41:09;;;;;;;5.57;3.13;;;10.70;74.30;;;;;;5046492;28;20048;-47
2022/12/25 05:43:35;;;;;;;3.30;2.50;;;10.70;74.40;;;;;;5046413;28;20685;-49
2022/12/25 05:46:04;;;;;;;5.68;2.47;;;10.70;74.60;;;;;;5049723;28;20528;-48
2022/12/25 05:48:33;;;;;;;4.75;2.80;;;10.70;74.80;;;;;;5045473;28;20532;-47
2022/12/25 05:51:12;;;;;;;4.47;2.80;;;10.80;74.90;;;;;;5047636;28;20127;-48
2022/12/25 05:53:48;;;;;;;3.33;2.38;;;10.80;75.10;;;;;;5047746;28;20044;-49
2022/12/25 05:56:19;;;;;;;3.33;2.55;;;10.90;75.20;;;;;;5049228;28;20036;-51
2022/12/25 05:58:50;;;;;;;4.28;2.80;;;10.90;75.20;;;;;;5036415;28;20057;-49
2022/12/25 06:01:21;;;;;;;3.95;2.40;;;11.00;75.20;;;;;;5034720;28;20052;-49
2022/12/25 06:03:51;;;;;;;5.10;3.08;;;11.00;75.20;;;;;;5050075;28;20052;-48
2022/12/25 06:06:20;;;;;;;4.18;2.53;;;11.10;75.30;;;;;;5044549;28;20459;-50
2022/12/25 06:08:47;;;;;;;4.03;2.60;;;11.10;75.20;;;;;;5038399;28;20033;-49
2022/12/25 06:11:16;;;;;;;3.17;2.58;;;11.20;75.30;;;;;;5040172;28;20029;-49
2022/12/25 06:13:49;;;;;;;3.60;2.58;;;11.20;75.30;;;;;;5038945;28;20107;-47
2022/12/25 06:16:16;;;;;;;3.78;2.60;;;11.20;75.20;;;;;;5040549;28;20612;-50
2022/12/25 06:18:56;;;;;;;4.22;2.80;;;11.30;75.20;;;;;;5029993;28;20049;-48
2022/12/25 06:21:22;;;;;;;2.97;2.40;;;11.30;75.20;;;;;;5038899;28;20052;-49
2022/12/25 06:23:52;;;;;;;5.35;3.35;;;11.30;75.00;;;;;;5038272;28;20047;-49
2022/12/25 06:26:19;;;;;;;3.65;3.05;;;11.40;75.00;;;;;;5044713;28;20048;-47
2022/12/25 06:28:49;;;;;;;3.63;3.03;;;11.40;75.00;;;;;;5036101;28;20095;-50
2022/12/25 06:31:19;;;;;;;7.88;3.58;;;11.40;74.90;;;;;;5035040;28;20068;-48
2022/12/25 06:33:47;;;;;;;3.13;2.80;;;11.50;75.00;;;;;;5031750;28;20048;-49
2022/12/25 06:36:23;;;;;;;2.92;2.63;;;11.50;75.00;;;;;;5044389;28;20118;-47
2022/12/25 06:38:51;;;;;;;5.47;3.33;;;11.50;75.00;;;;;;5041352;28;20048;-50
2022/12/25 06:41:22;;;;;;;4.90;2.88;;;11.50;74.90;;;;;;5050532;28;20497;-47
2022/12/25 06:43:52;;;;;;;3.80;3.38;;;11.50;74.90;;;;;;5043964;28;20094;-48
2022/12/25 06:46:21;;;;;;;4.28;3.75;;;11.60;74.90;;;;;;5042738;28;20042;-52
2022/12/25 06:48:48;;;;;;;6.25;3.10;;;11.50;75.50;;;;;;5040804;28;20083;-52
2022/12/25 06:51:16;;;;;;;4.85;3.13;;;11.60;74.90;;;;;;5036558;28;20642;-53
2022/12/25 06:53:43;;;;;;;6.30;3.75;;;11.60;74.90;;;;;;5037909;28;20046;-51
2022/12/25 06:56:14;;;;;;;5.88;4.15;;;11.60;74.90;;;;;;5033146;28;20041;-51
2022/12/25 06:58:46;;;;;;;6.05;3.50;;;11.60;74.90;;;;;;5042961;28;20124;-52
2022/12/25 07:01:22;;;;;;;5.28;3.47;;;11.60;74.90;;;;;;5030975;28;20135;-53
2022/12/25 07:03:53;;;;;;;7.40;3.65;;;11.70;74.90;;;;;;5050336;28;20079;-52
2022/12/25 07:06:20;;;;;;;6.40;2.88;;;11.60;74.60;;;;;;5046659;28;20045;-50
2022/12/25 07:08:46;;;;;;;7.50;3.08;;;11.70;74.60;;;;;;5041015;28;20436;-53
2022/12/25 07:11:16;;;;;;;2.88;2.45;;;11.60;74.30;;;;;;5047799;28;20041;-51
2022/12/25 07:13:48;;;;;;;3.42;2.53;;;11.60;74.20;;;;;;5044175;28;20112;-48
2022/12/25 07:16:17;;;;;;;3.53;2.15;;;11.60;74.10;;;;;;5042102;28;20130;-49
2022/12/25 07:18:46;;;;;;;2.70;1.95;;;11.60;74.00;;;;;;5052413;28;20045;-52
2022/12/25 07:21:19;;;;;;;3.08;1.55;;;11.60;74.00;;;;;;5047978;28;20071;-53
2022/12/25 07:23:49;;;;;;;2.20;2.00;;;11.60;74.20;;;;;;5041943;28;20077;-50
2022/12/25 07:26:18;;;;;;;3.65;2.30;;;11.50;74.30;;;;;;5052254;28;20048;-52
2022/12/25 07:28:54;;;;;;;4.90;2.15;;;11.50;74.40;;;;;;5049538;28;20082;-49
2022/12/25 07:31:24;;;;;;;4.18;2.58;;;11.50;74.40;;;;;;5048795;28;20057;-49
2022/12/25 07:33:56;;;;;;;4.22;2.33;;;11.50;74.40;;;;;;5050081;28;20525;-53
2022/12/25 07:36:29;;;;;;;3.08;2.40;;;11.50;74.50;;;;;;5046094;28;20098;-52
2022/12/25 07:38:58;;;;;;;5.95;2.42;;;11.50;74.60;;;;;;5052291;28;20626;-52
2022/12/25 07:41:28;;;;;;;3.25;2.00;;;11.50;74.50;;;;;;5048383;28;20122;-51
2022/12/25 07:44:12;;;;;;;4.20;2.13;;;11.50;74.50;;;;;;5040103;28;20076;-50
2022/12/25 07:46:38;;;;;;;4.70;2.78;;;11.50;74.60;;;;;;5030037;28;20706;-48
2022/12/25 07:49:05;;;;;;;5.20;2.60;;;11.40;74.60;;;;;;5033600;28;20637;-50
2022/12/25 07:51:32;;;;;;;5.03;3.00;;;11.40;74.60;;;;;;5043420;28;20040;-53
2022/12/25 07:53:59;;;;;;;6.72;3.63;;;11.40;74.70;;;;;;5045010;28;20121;-53
2022/12/25 07:56:26;;;;;;;4.82;3.50;;;11.40;74.80;;;;;;5042265;28;20037;-51
2022/12/25 07:58:53;;;;;;;6.43;2.95;;;11.40;74.90;;;;;;5041547;28;20541;-49
2022/12/25 08:01:22;;;;;;;3.42;2.25;;;11.40;74.90;;;;;;5048898;28;20049;-49
2022/12/25 08:03:55;;;;;;;5.32;3.35;;;11.50;75.10;;;;;;5041202;28;20037;-50
2022/12/25 08:06:25;;;;;;;;;;;11.50;75.20;;;;;;5043333;28;20029;-49
2022/12/25 08:08:52;;;;;;;5.38;3.53;;;11.50;75.40;;;;;;5033820;28;20384;-49
2022/12/25 08:11:19;;;;;;;5.72;3.67;;;11.50;75.60;;;;;;5034791;28;20099;-51
2022/12/25 08:13:45;;;;;;;5.55;2.72;;;11.50;75.10;;;;;;5043254;28;20112;-51
2022/12/25 08:16:12;;;;;;;4.13;2.13;;;11.50;75.10;;;;;;5047521;28;20485;-53
2022/12/25 08:18:39;;;;;;;3.92;2.92;;;11.50;75.10;;;;;;5037822;28;20124;-50
2022/12/25 08:21:11;;;;;;;4.45;3.03;;;11.50;75.20;;;;;;5042373;28;20037;-51
2022/12/25 08:23:43;;;;;;;3.50;2.60;;;11.60;75.30;;;;;;5038929;28;20120;-50
2022/12/25 08:26:13;;;;;;;5.38;3.35;;;11.60;75.30;;;;;;5041106;28;20033;-48
2022/12/25 08:28:40;;;;;;;3.25;1.95;;;11.60;75.40;;;;;;5034539;28;20049;-50
2022/12/25 08:31:17;;;;;;;5.40;2.17;;;11.70;75.50;;;;;;5047502;28;20044;-50
2022/12/25 08:33:46;;;;;;;3.05;2.22;;;11.70;75.60;;;;;;5031091;28;20076;-49
2022/12/25 08:36:15;;;;;;;2.90;2.30;;;11.70;75.60;;;;;;5042008;28;20470;-50
2022/12/25 08:38:41;;;;;;;4.15;2.17;;;11.70;75.50;;;;;;5050949;28;20037;-49
2022/12/25 08:41:09;;;;;;;2.22;2.03;;;11.70;75.50;;;;;;5033040;28;20040;-49
2022/12/25 08:43:36;;;;;;;4.18;2.95;;;11.80;75.50;;;;;;5032597;28;20033;-52
2022/12/25 08:46:03;;;;;;;3.83;3.50;;;11.80;75.50;;;;;;5041543;28;20025;-50
2022/12/25 08:48:30;;;;;;;7.43;3.80;;;11.80;75.60;;;;;;5040374;28;20120;-51
2022/12/25 08:50:57;;;;;;;3.97;3.53;;;11.80;75.50;;;;;;5044052;28;20119;-50
2022/12/25 08:53:24;;;;;;;5.05;3.38;;;11.90;75.60;;;;;;5030853;28;20128;-50
2022/12/25 08:56:03;;;;;;;4.18;3.60;;;11.90;75.50;;;;;;5031510;28;20033;-51
2022/12/25 08:58:30;;;;;;;2.75;2.55;;;11.90;75.60;;;;;;5039433;28;20128;-53
2022/12/25 09:00:59;;;;;;;4.63;3.30;;;11.90;75.40;;;;;;5039026;28;20037;-49
2022/12/25 09:03:26;;;;;;;5.97;3.78;;;12.00;75.50;;;;;;5044617;28;20037;-53
2022/12/25 09:05:55;;;;;;;4.68;3.67;;;12.00;75.60;;;;;;5043401;28;20045;-51
2022/12/25 09:08:22;;;;;;;3.80;2.47;;;12.00;75.50;;;;;;5044471;28;20112;-49
2022/12/25 09:10:48;;;;;;;2.85;2.65;;;12.00;75.50;;;;;;5034602;28;20104;-51
2022/12/25 09:13:15;;;;;;;4.15;2.20;;;12.00;75.60;;;;;;5041577;28;20037;-49
2022/12/25 09:15:42;;;;;;;4.72;3.22;;;12.10;75.60;;;;;;5047727;28;20037;-47
2022/12/25 09:18:09;;;;;;;3.00;2.13;;;12.10;75.60;;;;;;5036317;28;20528;-49
2022/12/25 09:20:35;;;;;;;2.33;1.98;;;12.10;75.60;;;;;;5046274;28;20045;-53
2022/12/25 09:23:05;;;;;;;4.65;2.47;;;12.10;75.70;;;;;;5039514;28;20037;-51
2022/12/25 09:25:39;;;;;;;4.38;2.92;;;12.10;75.80;;;;;;5048413;28;20045;-52
2022/12/25 09:28:05;;;;;;;4.30;2.90;;;12.10;75.80;;;;;;5039490;28;20095;-53
2022/12/25 09:30:32;;;;;;;3.75;2.88;;;12.10;75.90;;;;;;5017522;28;20045;-51
2022/12/25 09:32:59;;;;;;;4.65;2.78;;;12.20;76.00;;;;;;5047922;28;20037;-51
2022/12/25 09:35:25;;;;;;;4.90;3.00;;;12.20;76.00;;;;;;5047487;28;20051;-52
2022/12/25 09:37:52;;;;;;;4.22;3.00;;;12.20;76.10;;;;;;5023407;28;20502;-49
2022/12/25 09:40:27;;;;;;;4.13;1.90;;;12.20;76.10;;;;;;5046133;28;20041;-50
2022/12/25 09:42:54;;;;;;;3.38;1.92;;;12.20;76.20;;;;;;5038538;28;20120;-47
2022/12/25 09:45:28;;;;;;;5.53;2.15;;;12.20;76.20;;;;;;5047036;28;20044;-49
2022/12/25 09:47:56;;;;;;;3.90;2.22;;;12.20;76.30;;;;;;5031352;28;20392;-50
2022/12/25 09:50:36;;;;;;;3.60;2.10;;;12.20;76.20;;;;;;5041080;28;20041;-53
2022/12/25 09:53:18;;;;;;;3.28;2.13;;;12.30;76.40;;;;;;5031664;28;20033;-53
2022/12/25 09:55:52;;;;;;;4.35;2.50;;;12.30;76.60;;;;;;5030339;28;20045;-49
2022/12/25 09:58:19;;;;;;;3.75;2.75;;;12.30;76.50;;;;;;5041356;28;20552;-52
2022/12/25 10:00:55;;;;;;;3.60;2.50;;;12.30;76.40;;;;;;5044673;28;20033;-53
2022/12/25 10:03:46;;;;;;;4.85;2.42;;;12.30;76.50;;;;;;5049834;28;20044;-53
2022/12/25 10:06:21;;;;;;;3.58;2.40;;;12.30;76.60;;;;;;5042577;28;20517;-49
2022/12/25 10:08:53;;;;;;;4.22;3.08;;;12.40;76.70;;;;;;5049835;28;20068;-53
2022/12/25 10:11:46;;;;;;;4.78;3.28;;;12.40;76.60;;;;;;5043872;28;20076;-49
2022/12/25 10:14:36;;;;;;;4.68;2.83;;;12.40;76.80;;;;;;5040957;28;20043;-49
2022/12/25 10:17:25;;;;;;;3.95;2.80;;;12.50;76.90;;;;;;5049968;28;20086;-51
2022/12/25 10:20:19;;;;;;;5.90;3.35;;;12.50;76.80;;;;;;5039496;28;20055;-50
2022/12/25 10:22:52;;;;;;;5.47;4.05;;;12.50;76.90;;;;;;5039696;28;20129;-52
2022/12/25 10:25:22;;;;;;;6.13;4.63;;;12.50;76.70;;;;;;5035520;28;20100;-50
2022/12/25 10:27:53;;;;;;;5.63;3.67;;;12.50;76.70;;;;;;5029461;28;20041;-51
2022/12/25 10:30:23;;;;;;;5.55;3.67;;;12.50;76.80;;;;;;5032836;28;20462;-50
2022/12/25 10:32:51;;;;;;;3.00;2.55;;;12.60;76.90;;;;;;5036287;28;20072;-51
2022/12/25 10:35:20;;;;;;;8.68;3.85;;;12.60;76.90;;;;;;5033490;28;20044;-52
2022/12/25 10:38:04;;;;;;;6.07;5.57;;;12.60;77.50;;;;;;5039347;28;20051;-50
2022/12/25 10:40:58;;;;;;;5.50;3.72;;;12.60;77.10;;;;;;5040141;28;20044;-49
2022/12/25 10:43:35;;;;;;;3.92;3.05;;;12.70;77.20;;;;;;5039369;28;20040;-49
2022/12/25 10:46:12;;;;;;;3.97;2.95;;;12.70;76.90;;;;;;5040103;28;20042;-49
2022/12/25 10:48:48;;;;;;;3.22;2.67;;;12.70;76.90;;;;;;5040908;28;20055;-49
2022/12/25 10:51:37;;;;;;;3.90;2.80;;;12.70;76.80;;;;;;5044128;28;20103;-51
2022/12/25 10:54:21;;;;;;;4.60;2.40;;;12.70;77.10;;;;;;5044195;28;20494;-50
2022/12/25 10:56:56;;;;;;;3.60;2.78;;;12.70;76.90;;;;;;5032830;28;20037;-50
2022/12/25 10:59:26;;;;;;;3.78;2.85;;;12.70;76.90;;;;;;5033896;28;20118;-50
2022/12/25 11:02:13;;;;;;;4.20;2.92;;;12.70;76.70;;;;;;5036500;28;20559;-49
2022/12/25 11:04:41;;;;;;;5.60;3.35;;;12.70;77.00;;;;;;5031368;28;20041;-49
2022/12/25 11:07:16;;;;;;;5.28;3.20;;;12.70;76.80;;;;;;5049086;28;20035;-46
2022/12/25 11:09:54;;;;;;;4.72;3.03;;;12.80;77.10;;;;;;5040277;28;20041;-49
2022/12/25 11:12:33;;;;;;;5.63;3.28;;;12.80;77.20;;;;;;5048923;28;20044;-51
2022/12/25 11:15:05;;;;;;;4.97;3.08;;;12.80;77.10;;;;;;5042728;28;20078;-50
2022/12/25 11:17:34;;;;;;;5.93;3.00;;;12.80;77.00;;;;;;5047795;28;20522;-50
2022/12/25 11:20:01;;;;;;;3.90;3.40;;;12.90;77.00;;;;;;5040163;28;20472;-53
2022/12/25 11:22:28;;;;;;;4.57;3.60;;;12.90;76.90;;;;;;5044963;28;20048;-50
2022/12/25 11:24:55;;;;;;;4.75;4.35;;;12.90;77.00;;;;;;5041219;28;20186;-50
2022/12/25 11:27:26;;;;;;;5.97;4.38;;;12.90;76.90;;;;;;5044069;28;20042;-50
2022/12/25 11:30:04;;;;;;;6.45;3.90;;;12.90;77.00;;;;;;5034130;28;20569;-50
2022/12/25 11:32:38;;;;;;;4.20;3.80;;;12.90;77.10;;;;;;5037614;28;20041;-50
2022/12/25 11:35:12;;;;;;;5.65;3.83;;;12.90;76.80;;;;;;5041269;28;20375;-49
2022/12/25 11:37:44;;;;;;;3.63;3.33;;;12.90;76.90;;;;;;5038334;28;20042;-51
2022/12/25 11:40:21;;;;;;;3.63;2.75;;;13.00;76.80;;;;;;5040741;28;20206;-49
2022/12/25 11:42:57;;;;;;;4.05;2.55;;;13.00;76.90;;;;;;5031149;28;20068;-49
2022/12/25 11:45:37;;;;;;;3.42;2.33;;;13.00;76.80;;;;;;5048361;28;20052;-49
2022/12/25 11:48:13;;;;;;;3.13;2.20;;;13.00;76.70;;;;;;5040481;28;20121;-49
2022/12/25 11:50:56;;;;;;;5.30;2.63;;;13.00;76.70;;;;;;5045970;28;20115;-50
2022/12/25 11:53:37;;;;;;;3.35;2.47;;;13.00;76.90;;;;;;5040855;28;20045;-53
2022/12/25 11:56:12;;;;;;;3.30;2.47;;;13.00;76.90;;;;;;5039870;28;20087;-52
2022/12/25 11:58:55;;;;;;;4.55;3.00;;;13.00;76.80;;;;;;5040657;28;20044;-52
2022/12/25 12:01:41;;;;;;;5.82;5.30;;;13.00;76.90;;;;;;5044267;28;20520;-50
2022/12/25 12:04:29;;;;;;;4.80;4.30;;;13.00;76.80;;;;;;5048478;28;20561;-52
2022/12/25 12:07:12;;;;;;;6.40;5.15;;;13.00;77.00;;;;;;5044345;28;20127;-50
2022/12/25 12:09:57;;;;;;;6.95;4.40;;;13.00;77.00;;;;;;5049372;28;20050;-51
2022/12/25 12:12:32;;;;;;;6.25;4.55;;;13.00;77.20;;;;;;5048075;28;20041;-51
2022/12/25 12:15:19;;;;;;;4.95;4.47;;;13.00;77.30;;;;;;5048272;28;20124;-50
2022/12/25 12:17:46;;;;;;;7.97;7.28;;;13.00;77.20;;;;;;5033932;28;20068;-51
2022/12/25 12:20:31;;;;;;;7.00;6.00;;;13.00;77.10;;;;;;5038241;28;20037;-50
2022/12/25 12:22:59;;;;;;;4.78;4.38;;;13.00;77.50;;;;;;5045683;28;20044;-52
2022/12/25 12:25:27;;;;;;;5.22;4.53;;;13.00;77.20;;;;;;5045968;28;20580;-48
2022/12/25 12:27:59;;;;;;;6.55;4.60;;;13.00;77.20;;;;;;5051387;28;20195;-51
2022/12/25 12:30:34;;;;;;;5.30;4.65;;;13.00;77.40;;;;;;5043805;28;20843;-49
2022/12/25 12:33:04;;;;;;;5.40;4.90;;;13.00;77.40;;;;;;5051179;28;20551;-52
2022/12/25 12:35:37;;;;;;;4.78;4.38;;;13.00;77.40;;;;;;5039468;28;20055;-51
2022/12/25 12:38:14;;;;;;;5.97;4.18;;;13.00;77.50;;;;;;5042458;28;20038;-52
2022/12/25 12:40:57;;;;;;;5.53;5.03;;;13.00;77.50;;;;;;5044449;28;20545;-50
2022/12/25 12:43:32;;;;;;;6.03;5.15;;;13.00;77.70;;;;;;5039725;28;20051;-52
2022/12/25 12:46:04;;;;;;;5.18;4.53;;;13.00;77.50;;;;;;5042392;28;20076;-52
2022/12/25 12:48:39;;;;;;;5.07;4.30;;;13.10;77.60;;;;;;5041306;28;20055;-51
2022/12/25 12:51:09;;;;;;;7.22;6.53;;;13.00;77.60;;;;;;5043932;28;20836;-53
2022/12/25 12:53:41;;;;;;;8.25;7.55;;;13.10;77.60;;;;;;5049747;28;20049;-52
2022/12/25 12:56:13;;;;;;;5.97;5.40;;;13.10;77.70;;;;;;5033061;28;20041;-51
2022/12/25 12:58:45;;;;;;;6.85;5.85;;;13.10;77.70;;;;;;5043019;28;20473;-54
2022/12/25 13:01:39;;;;;;;8.40;7.10;;;13.10;77.50;;;;;;5045322;28;20406;-51
2022/12/25 13:04:31;;;;;;;7.63;6.85;;;13.10;77.70;;;;;;5038707;28;20467;-52
2022/12/25 13:07:26;;;;;;;6.53;5.93;;;13.10;77.60;;;;;;5045840;28;20428;-51
2022/12/25 13:10:09;;;;;;;6.03;5.43;;;13.10;77.60;;;;;;5048488;28;20075;-51
2022/12/25 13:12:36;;;;;;;7.60;5.78;;;13.10;77.50;;;;;;5043094;28;20094;-53
2022/12/25 13:15:10;;;;;;;5.90;5.25;;;13.10;77.40;;;;;;5050416;28;20037;-50
2022/12/25 13:17:37;;;;;;;7.25;5.60;;;13.10;77.50;;;;;;5047060;28;20464;-50
2022/12/25 13:20:04;;;;;;;6.30;5.20;;;13.10;77.50;;;;;;5046859;28;20087;-49
2022/12/25 13:22:33;;;;;;;5.85;5.28;;;13.10;77.50;;;;;;5036161;28;20045;-48
2022/12/25 13:25:04;;;;;;;6.95;6.30;;;13.10;77.60;;;;;;5038846;28;20041;-50
2022/12/25 13:27:32;;;;;;;7.40;6.78;;;13.10;77.60;;;;;;5042306;28;20049;-51
2022/12/25 13:30:09;;;;;;;6.07;5.38;;;13.10;77.60;;;;;;5047373;28;20045;-50
2022/12/25 13:32:36;;;;;;;5.97;5.47;;;13.10;77.50;;;;;;5033754;28;20046;-54
2022/12/25 13:35:10;;;;;;;5.47;4.88;;;13.20;77.60;;;;;;5029697;28;20044;-49
2022/12/25 13:37:37;;;;;;;6.60;5.93;;;13.20;77.60;;;;;;5039470;28;20417;-51
2022/12/25 13:40:12;;;;;;;6.22;5.38;;;13.20;77.70;;;;;;5045395;28;21254;-51
2022/12/25 13:42:46;;;;;;;6.65;5.95;;;13.20;77.70;;;;;;5048714;28;20115;-49
2022/12/25 13:45:12;;;;;;;6.05;5.25;;;13.20;77.80;;;;;;5041627;28;20055;-48
2022/12/25 13:47:42;;;;;;;6.22;5.10;;;13.20;77.70;;;;;;5040427;28;20045;-52
2022/12/25 13:50:29;;;;;;;6.03;5.43;;;13.20;77.80;;;;;;5038807;28;20055;-51
2022/12/25 13:53:08;;;;;;;8.27;6.35;;;13.20;77.90;;;;;;5036170;28;20083;-51
2022/12/25 13:55:36;;;;;;;6.90;6.20;;;13.20;77.80;;;;;;5031368;28;20053;-49
2022/12/25 13:58:06;;;;;;;8.77;7.13;;;13.20;77.70;;;;;;5039047;28;20049;-52
2022/12/25 14:00:32;;;;;;;11.55;7.20;;;13.20;77.70;;;;;;5042281;28;20120;-52
2022/12/25 14:03:02;;;;;;;6.55;5.90;;;13.30;77.70;;;;;;5042955;28;20056;-55
2022/12/25 14:05:31;;;;;;;8.07;7.22;;;13.30;77.70;;;;;;5030237;28;20045;-52
2022/12/25 14:08:23;;;;;;;8.90;7.35;;;13.30;77.60;;;;;;5032648;28;20041;-53
2022/12/25 14:10:51;;;;;;;7.97;7.10;;;13.30;77.80;;;;;;5029707;28;20051;-51
2022/12/25 14:13:22;;;;;;;8.13;6.85;;;13.30;77.60;;;;;;5032951;28;20514;-51
2022/12/25 14:15:50;;;;;;;7.30;6.50;;;13.30;77.60;;;;;;5046333;28;20036;-53
2022/12/25 14:18:19;;;;;;;7.82;7.13;;;13.30;77.60;;;;;;5042421;28;20044;-52
2022/12/25 14:20:58;;;;;;;7.35;6.65;;;13.30;77.60;;;;;;5047035;28;20128;-54
2022/12/25 14:23:25;;;;;;;8.65;7.30;;;13.30;77.70;;;;;;5037592;28;20041;-51
2022/12/25 14:25:52;;;;;;;7.72;6.95;;;13.30;77.50;;;;;;5046867;28;20584;-50
2022/12/25 14:28:31;;;;;;;7.88;7.03;;;13.30;77.50;;;;;;5028961;28;20044;-52
2022/12/25 14:31:00;;;;;;;7.78;7.05;;;13.30;77.70;;;;;;5046376;28;20032;-51
2022/12/25 14:33:29;;;;;;;7.80;7.00;;;13.30;77.50;;;;;;5029551;28;20395;-54
2022/12/25 14:35:57;;;;;;;8.70;7.07;;;13.30;77.40;;;;;;5043123;28;20047;-54
2022/12/25 14:38:31;;;;;;;7.32;6.05;;;13.30;77.50;;;;;;5048542;28;20098;-52
2022/12/25 14:41:04;;;;;;;7.07;5.50;;;13.30;77.50;;;;;;5039850;28;20072;-53
2022/12/25 14:43:33;;;;;;;6.30;5.70;;;13.30;77.50;;;;;;5043004;28;20127;-52
2022/12/25 14:46:06;;;;;;;5.55;5.05;;;13.30;77.50;;;;;;5042394;28;20600;-54
2022/12/25 14:48:33;;;;;;;7.07;6.38;;;13.30;77.50;;;;;;5038906;28;20041;-52
2022/12/25 14:51:15;;;;;;;7.25;6.13;;;13.30;77.40;;;;;;5042957;28;20045;-51